Ashby, Nebraska
Current Conditions -  °F | °C
As of 12:53 PM on Sunday 25 Jan 2015 (Local Time) from KAIA Reporting Station
Overcast Overcast  
Wind Chill: 39°   Ceiling: 8000
Heat Index: 45°   Visibility: 10mi
Dew Point: 35°   Wind: 14mph
Humidity: 68%   Direction: 310°NW
Pressure: 30.03"   Gusts: NA
Location:  42.02°N, 101.93°W
Report Text: KAIA 251953Z AUTO 31012KT 10SM OVC080 07/02 A3003 RMK AO2 SLP177 T00720017
Loading
Personal Weather Stations






























Interactive Weather Map New forecast layout! Learn more

10-Day Weather Forecast

Advertisements
Track Severe Weather on mobile